createdAt,value
2022-11-05T00:00:16.348Z,22.08
2022-11-05T00:02:36.187Z,22.10
2022-11-05T00:04:56.001Z,22.06
2022-11-05T00:07:15.874Z,22.03
2022-11-05T00:09:32.737Z,22.02
2022-11-05T00:11:52.856Z,22.01
2022-11-05T00:14:13.072Z,22.01
2022-11-05T00:16:40.498Z,22.00
2022-11-05T00:18:41.831Z,22.00
2022-11-05T00:20:43.476Z,22.02
2022-11-05T00:23:03.542Z,22.02
2022-11-05T00:25:17.094Z,22.02
2022-11-05T00:27:18.392Z,22.01
2022-11-05T00:29:19.713Z,22.00
2022-11-05T00:31:21.030Z,21.99
2022-11-05T00:33:22.373Z,21.99
2022-11-05T00:35:23.730Z,21.99
2022-11-05T00:37:25.013Z,21.98
2022-11-05T00:39:26.293Z,21.99
2022-11-05T00:41:27.610Z,21.97
2022-11-05T00:43:47.724Z,21.97
2022-11-05T00:45:49.040Z,21.98
2022-11-05T00:48:08.867Z,21.99
2022-11-05T00:50:10.823Z,21.99
2022-11-05T00:52:31.092Z,21.99
2022-11-05T00:54:32.389Z,22.00
2022-11-05T00:56:33.676Z,22.03
2022-11-05T00:58:34.960Z,22.05
2022-11-05T01:00:36.219Z,22.07
2022-11-05T01:02:37.580Z,22.08
2022-11-05T01:04:38.957Z,22.06
2022-11-05T01:06:40.224Z,22.07
2022-11-05T01:08:41.521Z,22.08
2022-11-05T01:10:43.028Z,22.07
2022-11-05T01:12:44.290Z,22.08
2022-11-05T01:14:45.580Z,22.08
2022-11-05T01:16:46.905Z,22.07
2022-11-05T01:18:48.181Z,22.08
2022-11-05T01:20:49.452Z,22.06
2022-11-05T01:22:50.748Z,22.04
2022-11-05T01:24:52.052Z,22.05
2022-11-05T01:26:53.321Z,22.03
2022-11-05T01:28:54.872Z,22.04
2022-11-05T01:30:56.390Z,22.00
2022-11-05T01:32:57.962Z,22.01
2022-11-05T01:34:59.300Z,21.99
2022-11-05T01:37:00.617Z,21.99
2022-11-05T01:39:01.992Z,21.98
2022-11-05T01:41:03.250Z,21.99
2022-11-05T01:43:04.613Z,21.95
2022-11-05T01:45:05.914Z,21.92
2022-11-05T01:47:07.280Z,21.90
2022-11-05T01:49:08.554Z,21.87
2022-11-05T01:51:09.905Z,21.90
2022-11-05T01:53:11.531Z,21.87
2022-11-05T01:55:12.980Z,21.87
2022-11-05T01:57:14.743Z,21.88
2022-11-05T01:59:16.017Z,21.86
2022-11-05T02:01:17.337Z,21.87
2022-11-05T02:03:18.665Z,21.87
2022-11-05T02:05:19.950Z,21.86
2022-11-05T02:07:21.208Z,21.86
2022-11-05T02:09:22.519Z,21.86
2022-11-05T02:11:23.784Z,21.86
2022-11-05T02:13:25.071Z,21.86
2022-11-05T02:15:26.357Z,21.87
2022-11-05T02:17:27.621Z,21.87
2022-11-05T02:19:28.920Z,21.89
2022-11-05T02:21:30.189Z,21.90
2022-11-05T02:23:31.473Z,21.91
2022-11-05T02:25:32.748Z,21.92
2022-11-05T02:27:34.045Z,21.91
2022-11-05T02:29:35.294Z,21.90
2022-11-05T02:31:36.988Z,21.91
2022-11-05T02:33:38.262Z,21.90
2022-11-05T02:35:39.528Z,21.90
2022-11-05T02:37:40.908Z,21.90
2022-11-05T02:39:42.172Z,21.89
2022-11-05T02:41:43.471Z,21.89
2022-11-05T02:43:44.799Z,21.87
2022-11-05T02:45:46.075Z,21.86
2022-11-05T02:47:47.992Z,21.85
2022-11-05T02:49:49.313Z,21.85
2022-11-05T02:51:50.568Z,21.84
2022-11-05T02:53:51.854Z,21.89
2022-11-05T02:55:53.161Z,21.87
2022-11-05T02:57:54.466Z,21.86
2022-11-05T02:59:55.748Z,21.84
2022-11-05T03:01:57.151Z,21.08
2022-11-05T03:03:58.575Z,21.87
2022-11-05T03:05:59.844Z,21.91
2022-11-05T03:08:01.136Z,21.91
2022-11-05T03:10:02.549Z,21.91
2022-11-05T03:12:03.912Z,21.90
2022-11-05T03:14:05.179Z,21.89
2022-11-05T03:16:06.448Z,21.90
2022-11-05T03:18:07.745Z,21.89
2022-11-05T03:20:09.021Z,21.95
2022-11-05T03:22:10.509Z,22.03
2022-11-05T03:24:11.792Z,22.05
2022-11-05T03:26:13.065Z,22.04
2022-11-05T03:28:14.365Z,22.03
2022-11-05T03:30:15.653Z,22.01
2022-11-05T03:32:16.997Z,22.02
2022-11-05T03:34:18.328Z,22.01
2022-11-05T03:36:19.581Z,22.02
2022-11-05T03:38:20.917Z,22.02
2022-11-05T03:40:22.189Z,22.02
2022-11-05T03:42:23.489Z,22.04
2022-11-05T03:44:24.832Z,22.04
2022-11-05T03:46:26.157Z,22.05
2022-11-05T03:48:27.510Z,22.06
2022-11-05T03:50:28.813Z,22.07
2022-11-05T03:52:30.083Z,22.04
2022-11-05T03:54:32.086Z,22.02
2022-11-05T03:56:33.357Z,22.00
2022-11-05T03:58:34.639Z,21.98
2022-11-05T04:00:35.904Z,22.01
2022-11-05T04:02:37.339Z,22.00
2022-11-05T04:04:38.772Z,22.01
2022-11-05T04:06:59.033Z,22.02
2022-11-05T04:09:18.955Z,21.94
2022-11-05T04:11:38.902Z,21.92
2022-11-05T04:13:40.208Z,21.91
2022-11-05T04:16:00.005Z,21.94
2022-11-05T04:18:01.331Z,21.97
2022-11-05T04:20:22.858Z,21.96
2022-11-05T04:22:42.852Z,21.99
2022-11-05T04:24:44.117Z,21.99
2022-11-05T04:26:45.446Z,21.98
2022-11-05T04:29:07.961Z,21.96
2022-11-05T04:31:09.434Z,21.94
2022-11-05T04:33:11.150Z,21.93
2022-11-05T04:35:12.748Z,21.93
2022-11-05T04:37:14.057Z,21.92
2022-11-05T04:39:15.324Z,21.90
2022-11-05T04:41:16.661Z,21.94
2022-11-05T04:43:18.544Z,21.96
2022-11-05T04:45:20.216Z,21.98
2022-11-05T04:47:21.543Z,21.98
2022-11-05T04:49:22.829Z,21.99
2022-11-05T04:51:24.102Z,21.99
2022-11-05T04:53:25.422Z,21.99
2022-11-05T04:55:26.908Z,22.02
2022-11-05T04:57:28.184Z,22.03
2022-11-05T04:59:29.529Z,22.00
2022-11-05T05:01:30.953Z,22.01
2022-11-05T05:03:32.312Z,22.00
2022-11-05T05:05:33.625Z,21.98
2022-11-05T05:07:34.902Z,21.98
2022-11-05T05:09:36.182Z,21.96
2022-11-05T05:11:37.498Z,21.95
2022-11-05T05:13:38.828Z,21.94
2022-11-05T05:15:40.356Z,21.94
2022-11-05T05:17:41.766Z,21.92
2022-11-05T05:20:01.645Z,21.92
2022-11-05T05:22:02.933Z,21.91
2022-11-05T05:24:04.228Z,21.90
2022-11-05T05:26:05.511Z,21.92
2022-11-05T05:28:06.787Z,21.93
2022-11-05T05:30:08.047Z,21.90
2022-11-05T05:32:09.333Z,21.97
2022-11-05T05:34:10.636Z,21.98
2022-11-05T05:36:11.896Z,21.99
2022-11-05T05:38:13.177Z,21.99
2022-11-05T05:40:14.497Z,21.98
2022-11-05T05:42:15.764Z,22.01
2022-11-05T05:44:17.192Z,21.99
2022-11-05T05:46:18.512Z,21.97
2022-11-05T05:48:19.864Z,21.99
2022-11-05T05:50:21.185Z,21.99
2022-11-05T05:52:22.450Z,21.97
2022-11-05T05:54:27.696Z,21.14
2022-11-05T05:56:33.104Z,21.92
2022-11-05T05:58:34.429Z,21.90
2022-11-05T06:00:35.773Z,21.89
2022-11-05T06:02:37.184Z,21.86
2022-11-05T06:04:38.519Z,21.90
2022-11-05T06:06:39.800Z,21.99
2022-11-05T06:08:41.131Z,22.01
2022-11-05T06:10:42.488Z,22.03
2022-11-05T06:12:43.915Z,22.03
2022-11-05T06:14:45.210Z,22.07
2022-11-05T06:16:46.516Z,22.08
2022-11-05T06:18:48.224Z,22.10
2022-11-05T06:20:49.507Z,22.09
2022-11-05T06:22:50.766Z,22.09
2022-11-05T06:24:52.097Z,22.09
2022-11-05T06:26:53.372Z,22.09
2022-11-05T06:28:54.820Z,22.08
2022-11-05T06:30:56.101Z,22.06
2022-11-05T06:32:57.377Z,22.06
2022-11-05T06:34:58.692Z,22.05
2022-11-05T06:37:00.005Z,22.05
2022-11-05T06:39:01.293Z,22.04
2022-11-05T06:41:07.222Z,22.04
2022-11-05T06:43:11.495Z,22.04
2022-11-05T06:45:12.992Z,22.03
2022-11-05T06:47:14.280Z,22.01
2022-11-05T06:49:15.597Z,22.00
2022-11-05T06:51:16.860Z,22.01
2022-11-05T06:53:18.200Z,22.04
2022-11-05T06:55:19.469Z,22.07
2022-11-05T06:57:20.774Z,22.05
2022-11-05T06:59:22.245Z,22.03
2022-11-05T07:01:23.645Z,22.02
2022-11-05T07:03:25.023Z,22.02
2022-11-05T07:05:26.315Z,22.01
2022-11-05T07:07:27.639Z,21.96
2022-11-05T07:09:29.127Z,21.92
2022-11-05T07:11:30.477Z,21.87
2022-11-05T07:13:31.777Z,21.82
2022-11-05T07:15:33.084Z,21.83
2022-11-05T07:17:34.405Z,21.86
2022-11-05T07:19:36.294Z,21.85
2022-11-05T07:21:37.645Z,21.78
2022-11-05T07:23:38.969Z,21.73
2022-11-05T07:25:40.285Z,21.70
2022-11-05T07:27:41.644Z,21.72
2022-11-05T07:29:42.918Z,21.87
2022-11-05T07:31:44.235Z,21.79
2022-11-05T07:33:45.528Z,21.81
2022-11-05T07:35:47.010Z,21.87
2022-11-05T07:37:48.300Z,21.96
2022-11-05T07:39:52.635Z,22.06
2022-11-05T07:41:57.804Z,22.09
2022-11-05T07:43:59.129Z,22.09
2022-11-05T07:46:00.485Z,22.11
2022-11-05T07:48:02.307Z,22.14
2022-11-05T07:50:03.593Z,22.16
2022-11-05T07:52:04.873Z,22.23
2022-11-05T07:54:06.214Z,22.24
2022-11-05T07:56:08.306Z,22.25
2022-11-05T07:58:09.573Z,22.25
2022-11-05T08:00:11.149Z,22.21
2022-11-05T08:02:18.811Z,22.25
2022-11-05T08:04:26.164Z,22.24
2022-11-05T08:06:27.443Z,22.29
2022-11-05T08:08:28.767Z,22.28
2022-11-05T08:10:30.045Z,22.22
2022-11-05T08:12:31.346Z,22.21
2022-11-05T08:14:32.844Z,22.22
2022-11-05T08:16:34.123Z,22.23
2022-11-05T08:18:35.921Z,22.28
2022-11-05T08:20:38.443Z,22.36
2022-11-05T08:22:39.725Z,22.24
2022-11-05T08:24:41.004Z,22.13
2022-11-05T08:26:45.501Z,22.02
2022-11-05T08:28:46.765Z,21.93
2022-11-05T08:30:48.033Z,21.85
2022-11-05T08:32:49.323Z,21.80
2022-11-05T08:34:50.780Z,21.81
2022-11-05T08:36:52.073Z,21.77
2022-11-05T08:38:53.332Z,21.71
2022-11-05T08:40:55.021Z,21.70
2022-11-05T08:42:56.298Z,21.68
2022-11-05T08:44:57.590Z,21.64
2022-11-05T08:46:58.928Z,21.59
2022-11-05T08:49:00.190Z,21.57
2022-11-05T08:51:01.908Z,21.54
2022-11-05T08:53:03.191Z,21.54
2022-11-05T08:55:04.459Z,21.53
2022-11-05T08:57:06.370Z,21.53
2022-11-05T08:59:07.704Z,21.52
2022-11-05T09:01:09.128Z,21.49
2022-11-05T09:03:10.854Z,21.49
2022-11-05T09:05:12.516Z,21.49
2022-11-05T09:07:14.060Z,21.51
2022-11-05T09:09:15.321Z,21.52
2022-11-05T09:11:18.038Z,21.57
2022-11-05T09:13:20.467Z,21.66
2022-11-05T09:15:23.218Z,21.73
2022-11-05T09:17:24.711Z,21.79
2022-11-05T09:19:26.000Z,21.83
2022-11-05T09:21:27.314Z,21.57
2022-11-05T09:23:28.584Z,19.86
2022-11-05T09:25:30.400Z,20.69
2022-11-05T09:27:31.888Z,22.12
2022-11-05T09:29:33.217Z,22.71
2022-11-05T09:31:34.544Z,23.31
2022-11-05T09:33:35.896Z,23.44
2022-11-05T09:35:37.181Z,23.13
2022-11-05T09:37:38.485Z,23.27
2022-11-05T09:39:40.072Z,23.78
2022-11-05T09:41:43.430Z,23.95
2022-11-05T09:43:44.733Z,23.67
2022-11-05T09:45:46.008Z,23.37
2022-11-05T09:47:47.320Z,23.30
2022-11-05T09:49:50.056Z,23.63
2022-11-05T09:51:51.354Z,23.48
2022-11-05T09:53:53.832Z,23.36
2022-11-05T09:55:55.167Z,23.33
2022-11-05T09:57:56.443Z,22.94
2022-11-05T09:59:57.752Z,22.63
2022-11-05T10:01:59.188Z,22.47
2022-11-05T10:04:00.584Z,22.42
2022-11-05T10:06:01.869Z,22.42
2022-11-05T10:08:06.021Z,22.51
2022-11-05T10:10:07.329Z,22.73
2022-11-05T10:12:08.660Z,23.39
2022-11-05T10:14:10.035Z,23.52
2022-11-05T10:16:11.320Z,23.64
2022-11-05T10:18:12.587Z,23.78
2022-11-05T10:20:13.869Z,23.72
2022-11-05T10:22:16.414Z,23.73
2022-11-05T10:24:17.696Z,23.70
2022-11-05T10:26:19.197Z,23.76
2022-11-05T10:28:20.505Z,23.87
2022-11-05T10:30:21.899Z,24.09
2022-11-05T10:32:23.244Z,24.54
2022-11-05T10:34:24.497Z,24.41
2022-11-05T10:36:28.815Z,24.48
2022-11-05T10:38:30.131Z,24.34
2022-11-05T10:40:31.443Z,23.67
2022-11-05T10:42:32.716Z,23.37
2022-11-05T10:44:34.070Z,23.35
2022-11-05T10:46:35.377Z,24.14
2022-11-05T10:48:40.784Z,24.31
2022-11-05T10:50:44.855Z,24.20
2022-11-05T10:52:46.169Z,23.86
2022-11-05T10:54:47.534Z,23.69
2022-11-05T10:56:48.867Z,23.35
2022-11-05T10:58:50.179Z,22.91
2022-11-05T11:00:51.494Z,22.80
2022-11-05T11:02:52.854Z,22.82
2022-11-05T11:04:54.134Z,23.05
2022-11-05T11:06:55.417Z,23.60
2022-11-05T11:08:56.736Z,24.07
2022-11-05T11:10:58.069Z,24.36
2022-11-05T11:12:59.457Z,24.18
2022-11-05T11:15:00.767Z,24.10
2022-11-05T11:17:02.115Z,24.09
2022-11-05T11:19:03.512Z,23.94
2022-11-05T11:21:04.828Z,23.68
2022-11-05T11:23:06.168Z,23.47
2022-11-05T11:25:07.431Z,23.42
2022-11-05T11:27:08.736Z,23.31
2022-11-05T11:29:10.064Z,23.15
2022-11-05T11:31:11.390Z,22.83
2022-11-05T11:33:12.954Z,22.67
2022-11-05T11:35:14.518Z,22.56
2022-11-05T11:37:19.443Z,22.46
2022-11-05T11:39:21.004Z,22.37
2022-11-05T11:41:25.089Z,21.55
2022-11-05T11:43:26.371Z,22.28
2022-11-05T11:45:27.701Z,22.21
2022-11-05T11:47:29.823Z,22.18
2022-11-05T11:49:31.101Z,22.15
2022-11-05T11:51:32.542Z,22.14
2022-11-05T11:53:34.080Z,22.12
2022-11-05T11:55:35.359Z,22.09
2022-11-05T11:57:36.625Z,22.07
2022-11-05T12:00:07.283Z,22.05
2022-11-05T12:01:59.352Z,22.04
2022-11-05T12:04:00.668Z,22.03
2022-11-05T12:06:01.945Z,22.04
2022-11-05T12:08:03.265Z,22.06
2022-11-05T12:10:04.541Z,22.06
2022-11-05T12:12:05.822Z,21.87
2022-11-05T12:14:07.317Z,21.97
2022-11-05T12:16:08.602Z,22.54
2022-11-05T12:18:12.860Z,22.73
2022-11-05T12:20:14.244Z,22.89
2022-11-05T12:22:15.953Z,23.01
2022-11-05T12:24:17.496Z,23.09
2022-11-05T12:26:18.791Z,23.20
2022-11-05T12:28:20.109Z,23.20
2022-11-05T12:30:21.605Z,23.21
2022-11-05T12:32:25.865Z,23.22
2022-11-05T12:34:27.214Z,23.23
2022-11-05T12:36:28.513Z,23.28
2022-11-05T12:38:29.865Z,23.30
2022-11-05T12:40:31.144Z,23.27
2022-11-05T12:42:32.409Z,23.28
2022-11-05T12:44:33.733Z,23.30
2022-11-05T12:46:35.064Z,23.30
2022-11-05T12:48:37.401Z,23.26
2022-11-05T12:50:38.779Z,23.27
2022-11-05T12:52:40.078Z,23.23
2022-11-05T12:54:41.926Z,23.19
2022-11-05T12:56:43.210Z,23.16
2022-11-05T12:58:44.556Z,23.14
2022-11-05T13:00:45.833Z,23.11
2022-11-05T13:02:47.114Z,23.06
2022-11-05T13:04:48.392Z,23.05
2022-11-05T13:06:49.680Z,23.04
2022-11-05T13:08:50.988Z,23.05
2022-11-05T13:10:52.329Z,23.04
2022-11-05T13:12:53.645Z,23.03
2022-11-05T13:14:54.945Z,23.01
2022-11-05T13:16:56.501Z,23.02
2022-11-05T13:18:57.818Z,22.36
2022-11-05T13:20:59.271Z,23.03
2022-11-05T13:23:00.856Z,23.01
2022-11-05T13:25:02.170Z,22.97
2022-11-05T13:27:03.510Z,22.78
2022-11-05T13:29:04.989Z,22.56
2022-11-05T13:31:06.295Z,22.41
2022-11-05T13:33:07.641Z,22.33
2022-11-05T13:35:08.971Z,22.28
2022-11-05T13:37:28.860Z,22.25
2022-11-05T13:39:30.213Z,22.22
2022-11-05T13:41:31.489Z,22.18
2022-11-05T13:43:32.815Z,22.20
2022-11-05T13:45:34.122Z,22.22
2022-11-05T13:47:35.412Z,22.24
2022-11-05T13:49:36.685Z,22.26
2022-11-05T13:51:39.524Z,22.22
2022-11-05T13:53:42.618Z,22.27
2022-11-05T13:55:47.431Z,22.32
2022-11-05T13:57:48.710Z,22.38
2022-11-05T13:59:50.021Z,22.40
2022-11-05T14:01:51.481Z,22.40
2022-11-05T14:03:52.892Z,22.60
2022-11-05T14:05:54.399Z,23.37
2022-11-05T14:07:55.703Z,23.49
2022-11-05T14:09:57.026Z,23.62
2022-11-05T14:11:58.363Z,23.86
2022-11-05T14:13:59.646Z,23.96
2022-11-05T14:16:00.915Z,24.04
2022-11-05T14:18:02.233Z,24.12
2022-11-05T14:20:04.544Z,24.06
2022-11-05T14:22:05.817Z,23.75
2022-11-05T14:24:07.120Z,23.97
2022-11-05T14:26:08.399Z,24.34
2022-11-05T14:28:09.710Z,24.34
2022-11-05T14:30:11.024Z,24.18
2022-11-05T14:32:12.316Z,24.23
2022-11-05T14:34:13.597Z,24.04
2022-11-05T14:36:17.568Z,24.22
2022-11-05T14:38:18.888Z,23.81
2022-11-05T14:40:20.833Z,23.63
2022-11-05T14:42:22.161Z,23.72
2022-11-05T14:44:23.453Z,23.12
2022-11-05T14:46:24.753Z,22.79
2022-11-05T14:48:26.049Z,22.58
2022-11-05T14:50:30.439Z,22.47
2022-11-05T14:52:31.739Z,22.36
2022-11-05T14:54:36.093Z,22.56
2022-11-05T14:56:37.411Z,21.98
2022-11-05T14:58:38.771Z,22.88
2022-11-05T15:00:40.808Z,22.94
2022-11-05T15:02:42.217Z,22.96
2022-11-05T15:04:45.603Z,22.97
2022-11-05T15:06:46.991Z,22.81
2022-11-05T15:08:48.276Z,22.51
2022-11-05T15:10:49.543Z,22.32
2022-11-05T15:12:50.858Z,22.40
2022-11-05T15:14:52.145Z,22.56
2022-11-05T15:16:53.490Z,22.61
2022-11-05T15:18:54.762Z,22.80
2022-11-05T15:20:56.034Z,22.84
2022-11-05T15:22:57.365Z,22.93
2022-11-05T15:24:58.830Z,23.09
2022-11-05T15:27:00.200Z,23.09
2022-11-05T15:29:01.775Z,23.18
2022-11-05T15:31:03.255Z,23.18
2022-11-05T15:33:04.588Z,22.76
2022-11-05T15:35:05.857Z,22.66
2022-11-05T15:37:07.128Z,22.66
2022-11-05T15:39:28.433Z,22.55
2022-11-05T15:41:34.607Z,22.61
2022-11-05T15:43:36.003Z,22.92
2022-11-05T15:45:37.325Z,23.34
2022-11-05T15:47:38.592Z,23.25
2022-11-05T15:49:40.029Z,23.10
2022-11-05T15:51:41.325Z,22.00
2022-11-05T15:54:01.897Z,22.47
2022-11-05T15:56:03.836Z,22.16
2022-11-05T15:58:05.104Z,22.10
2022-11-05T16:00:06.408Z,22.08
2022-11-05T16:02:07.754Z,21.28
2022-11-05T16:04:09.882Z,22.03
2022-11-05T16:06:11.227Z,22.00
2022-11-05T16:08:12.506Z,21.33
2022-11-05T16:10:13.816Z,21.96
2022-11-05T16:12:15.144Z,21.93
2022-11-05T16:14:17.006Z,21.91
2022-11-05T16:16:18.280Z,21.89
2022-11-05T16:18:19.592Z,21.87
2022-11-05T16:20:20.879Z,21.84
2022-11-05T16:22:22.157Z,21.83
2022-11-05T16:24:29.084Z,21.81
2022-11-05T16:27:00.501Z,21.80
2022-11-05T16:28:52.013Z,21.78
2022-11-05T16:30:53.411Z,21.76
2022-11-05T16:32:54.689Z,21.76
2022-11-05T16:34:55.957Z,21.75
2022-11-05T16:36:57.358Z,21.72
2022-11-05T16:38:58.638Z,21.73
2022-11-05T16:41:00.460Z,21.71
2022-11-05T16:43:01.734Z,21.72
2022-11-05T16:45:03.053Z,21.71
2022-11-05T16:47:04.316Z,21.69
2022-11-05T16:49:05.607Z,21.67
2022-11-05T16:51:06.941Z,21.68
2022-11-05T16:53:08.238Z,21.67
2022-11-05T16:55:09.514Z,21.66
2022-11-05T16:57:10.812Z,21.66
2022-11-05T16:59:12.284Z,21.66
2022-11-05T17:01:13.666Z,21.67
2022-11-05T17:03:18.160Z,21.69
2022-11-05T17:05:19.430Z,21.66
2022-11-05T17:07:20.748Z,21.62
2022-11-05T17:09:22.073Z,21.60
2022-11-05T17:11:23.399Z,21.55
2022-11-05T17:13:24.676Z,21.51
2022-11-05T17:15:25.990Z,21.47
2022-11-05T17:17:29.012Z,21.44
2022-11-05T17:19:30.281Z,21.40
2022-11-05T17:21:31.573Z,21.37
2022-11-05T17:23:34.248Z,21.36
2022-11-05T17:25:35.597Z,21.35
2022-11-05T17:27:36.886Z,21.36
2022-11-05T17:29:38.148Z,21.37
2022-11-05T17:31:39.415Z,21.39
2022-11-05T17:33:40.909Z,21.43
2022-11-05T17:35:42.233Z,21.45
2022-11-05T17:37:43.536Z,21.49
2022-11-05T17:39:44.801Z,21.53
2022-11-05T17:41:48.956Z,21.58
2022-11-05T17:43:50.257Z,21.60
2022-11-05T17:45:52.034Z,21.61
2022-11-05T17:47:53.829Z,21.65
2022-11-05T17:49:57.920Z,21.67
2022-11-05T17:51:59.182Z,21.67
2022-11-05T17:54:00.820Z,21.68
2022-11-05T17:56:02.091Z,21.69
2022-11-05T17:58:03.423Z,21.68
2022-11-05T18:00:04.750Z,21.67
2022-11-05T18:02:06.116Z,21.67
2022-11-05T18:04:09.162Z,21.64
2022-11-05T18:06:10.643Z,21.64
2022-11-05T18:08:12.784Z,21.62
2022-11-05T18:10:14.121Z,21.60
2022-11-05T18:12:15.391Z,21.59
2022-11-05T18:14:21.291Z,21.58
2022-11-05T18:16:25.059Z,21.55
2022-11-05T18:18:26.358Z,21.55
2022-11-05T18:20:27.696Z,21.53
2022-11-05T18:22:29.593Z,21.53
2022-11-05T18:24:30.876Z,21.52
2022-11-05T18:26:32.182Z,21.52
2022-11-05T18:28:33.836Z,21.51
2022-11-05T18:30:35.121Z,21.49
2022-11-05T18:32:36.445Z,21.50
2022-11-05T18:34:37.785Z,21.48
2022-11-05T18:36:39.109Z,21.48
2022-11-05T18:38:40.420Z,21.48
2022-11-05T18:40:41.677Z,21.48
2022-11-05T18:42:43.161Z,21.47
2022-11-05T18:44:44.516Z,21.47
2022-11-05T18:46:59.586Z,21.49
2022-11-05T18:49:00.899Z,21.48
2022-11-05T18:51:02.936Z,21.50
2022-11-05T18:53:04.209Z,21.53
2022-11-05T18:55:05.479Z,21.54
2022-11-05T18:57:06.781Z,21.59
2022-11-05T18:59:35.038Z,21.62
2022-11-05T19:01:29.383Z,21.68
2022-11-05T19:03:30.785Z,21.73
2022-11-05T19:05:32.080Z,21.78
2022-11-05T19:07:33.431Z,21.83
2022-11-05T19:09:34.758Z,21.85
2022-11-05T19:11:36.052Z,21.86
2022-11-05T19:13:37.409Z,21.86
2022-11-05T19:15:38.778Z,21.84
2022-11-05T19:17:40.073Z,21.80
2022-11-05T19:19:41.389Z,21.77
2022-11-05T19:21:42.721Z,21.74
2022-11-05T19:23:44.032Z,21.70
2022-11-05T19:25:45.305Z,21.68
2022-11-05T19:27:47.776Z,21.64
2022-11-05T19:29:49.065Z,21.62
2022-11-05T19:31:50.400Z,21.59
2022-11-05T19:33:52.038Z,21.57
2022-11-05T19:35:53.457Z,21.54
2022-11-05T19:37:54.841Z,21.51
2022-11-05T19:39:56.145Z,21.49
2022-11-05T19:42:02.972Z,21.47
2022-11-05T19:44:06.057Z,21.47
2022-11-05T19:46:07.324Z,21.44
2022-11-05T19:48:08.717Z,21.44
2022-11-05T19:50:10.148Z,21.41
2022-11-05T19:52:11.426Z,21.41
2022-11-05T19:54:12.744Z,21.41
2022-11-05T19:56:14.222Z,21.38
2022-11-05T19:58:15.602Z,21.38
2022-11-05T20:00:17.146Z,21.38
2022-11-05T20:02:18.533Z,21.38
2022-11-05T20:04:19.961Z,21.38
2022-11-05T20:06:21.244Z,21.38
2022-11-05T20:08:22.554Z,21.38
2022-11-05T20:10:23.883Z,21.39
2022-11-05T20:12:25.197Z,21.41
2022-11-05T20:14:26.545Z,21.43
2022-11-05T20:16:27.879Z,21.47
2022-11-05T20:18:30.052Z,21.52
2022-11-05T20:20:37.235Z,21.60
2022-11-05T20:22:41.673Z,21.67
2022-11-05T20:24:45.958Z,21.74
2022-11-05T20:26:47.299Z,21.80
2022-11-05T20:28:48.617Z,21.86
2022-11-05T20:30:49.949Z,21.90
2022-11-05T20:32:51.254Z,21.92
2022-11-05T20:34:52.575Z,21.95
2022-11-05T20:36:53.886Z,21.93
2022-11-05T20:38:58.253Z,21.89
2022-11-05T20:40:59.622Z,21.86
2022-11-05T20:43:03.900Z,21.82
2022-11-05T20:45:05.197Z,21.77
2022-11-05T20:47:09.235Z,21.74
2022-11-05T20:49:10.510Z,21.71
2022-11-05T20:51:11.832Z,21.66
2022-11-05T20:53:13.140Z,21.63
2022-11-05T20:55:17.268Z,21.59
2022-11-05T20:57:18.600Z,21.55
2022-11-05T20:59:19.891Z,21.52
2022-11-05T21:01:24.249Z,21.50
2022-11-05T21:03:27.251Z,21.48
2022-11-05T21:05:34.223Z,21.46
2022-11-05T21:07:36.925Z,21.44
2022-11-05T21:09:38.252Z,21.43
2022-11-05T21:11:58.161Z,21.40
2022-11-05T21:13:59.441Z,21.38
2022-11-05T21:16:00.793Z,21.36
2022-11-05T21:18:02.136Z,21.35
2022-11-05T21:20:06.290Z,21.35
2022-11-05T21:22:07.674Z,21.33
2022-11-05T21:24:08.939Z,21.31
2022-11-05T21:26:10.264Z,21.31
2022-11-05T21:28:11.997Z,21.31
2022-11-05T21:30:13.549Z,21.29
2022-11-05T21:32:15.157Z,21.29
2022-11-05T21:34:16.452Z,21.28
2022-11-05T21:36:17.840Z,21.29
2022-11-05T21:38:28.331Z,21.29
2022-11-05T21:40:29.651Z,21.30
2022-11-05T21:42:30.903Z,21.32
2022-11-05T21:44:32.223Z,21.37
2022-11-05T21:46:33.556Z,21.42
2022-11-05T21:48:35.054Z,21.49
2022-11-05T21:50:54.913Z,21.59
2022-11-05T21:53:14.953Z,21.64
2022-11-05T21:55:34.878Z,21.72
2022-11-05T21:57:54.733Z,21.77
2022-11-05T21:59:57.533Z,21.79
2022-11-05T22:02:02.467Z,21.82
2022-11-05T22:04:04.063Z,21.82
2022-11-05T22:06:05.425Z,21.79
2022-11-05T22:08:06.701Z,21.77
2022-11-05T22:10:10.791Z,21.72
2022-11-05T22:12:16.155Z,21.69
2022-11-05T22:14:17.869Z,21.66
2022-11-05T22:16:19.131Z,21.61
2022-11-05T22:18:20.466Z,21.58
2022-11-05T22:20:21.877Z,21.55
2022-11-05T22:22:23.156Z,21.50
2022-11-05T22:24:24.465Z,21.48
2022-11-05T22:26:28.945Z,21.44
2022-11-05T22:28:30.248Z,21.41
2022-11-05T22:30:32.268Z,21.40
2022-11-05T22:32:34.231Z,21.37
2022-11-05T22:34:35.501Z,21.35
2022-11-05T22:36:36.980Z,21.34
2022-11-05T22:38:38.233Z,21.32
2022-11-05T22:40:39.497Z,21.30
2022-11-05T22:42:40.899Z,21.29
2022-11-05T22:44:45.169Z,21.28
2022-11-05T22:46:46.437Z,21.26
2022-11-05T22:48:47.748Z,21.26
2022-11-05T22:50:49.042Z,21.25
2022-11-05T22:52:50.312Z,21.25
2022-11-05T22:54:51.945Z,21.25
2022-11-05T22:56:53.815Z,21.24
2022-11-05T22:58:55.093Z,21.25
2022-11-05T23:00:56.568Z,21.26
2022-11-05T23:02:57.954Z,21.27
2022-11-05T23:04:59.328Z,21.29
2022-11-05T23:07:24.622Z,21.32
2022-11-05T23:09:46.986Z,21.34
2022-11-05T23:11:48.292Z,21.39
2022-11-05T23:13:49.552Z,21.49
2022-11-05T23:16:09.402Z,21.75
2022-11-05T23:18:29.570Z,22.23
2022-11-05T23:20:49.516Z,22.46
2022-11-05T23:23:10.097Z,22.61
2022-11-05T23:25:11.463Z,22.68
2022-11-05T23:27:12.737Z,22.74
2022-11-05T23:29:14.261Z,22.03
2022-11-05T23:31:34.521Z,22.84
2022-11-05T23:33:35.885Z,22.83
2022-11-05T23:35:55.907Z,22.82
2022-11-05T23:38:15.885Z,22.83
2022-11-05T23:40:17.435Z,22.78
2022-11-05T23:42:42.081Z,22.78
2022-11-05T23:45:15.871Z,22.75
2022-11-05T23:47:35.929Z,22.42
2022-11-05T23:49:37.196Z,22.48
2022-11-05T23:51:38.515Z,22.00
2022-11-05T23:53:40.136Z,22.56
2022-11-05T23:55:41.532Z,22.51
2022-11-05T23:57:42.860Z,22.52
2022-11-05T23:59:44.185Z,22.50
